Time;durP1;ratioP1;P1;durP2;ratioP2;P2;SDS_P1;SDS_P2;PMS_P1;PMS_P2;Temp;Humidity;BMP_temperature;BMP_pressure;BME280_temperature;BME280_humidity;BME280_pressure;Samples;Min_cycle;Max_cycle;Signal;HPM_P1;HPM_P2
2023/04/22 00:01:17;;;;;;;;;;;;;;;15.53;73.21;99426.03;5093429;28;20015;-44
2023/04/22 00:03:43;;;;;;;;;;;;;;;15.05;74.80;99419.34;5093223;28;19912;-44
2023/04/22 00:06:09;;;;;;;;;;;;;;;15.38;73.49;99420.44;5093013;28;19924;-43
2023/04/22 00:08:34;;;;;;;;;;;;;;;15.19;74.67;99422.53;5093241;28;19923;-44
2023/04/22 00:10:59;;;;;;;;;;;;;;;15.15;75.77;99421.38;5092863;28;20401;-44
2023/04/22 00:13:25;;;;;;;;;;;;;;;15.31;74.52;99420.59;5092993;28;19912;-45
2023/04/22 00:15:50;;;;;;;;;;;;;;;15.34;73.94;99413.94;5092535;28;19922;-43
2023/04/22 00:18:15;;;;;;;;;;;;;;;15.57;73.66;99416.47;5092625;28;20294;-44
2023/04/22 00:20:42;;;;;;;;;;;;;;;15.85;71.46;99417.44;5092388;28;19977;-44
2023/04/22 00:23:08;;;;;;;;;;;;;;;15.91;72.16;99411.09;5092788;28;19912;-43
2023/04/22 00:25:33;;;;;;;;;;;;;;;16.11;71.09;99412.47;5092605;28;20335;-43
2023/04/22 00:27:58;;;;;;;;;;;;;;;16.22;70.00;99414.19;5092412;28;19977;-43
2023/04/22 00:30:24;;;;;;;;;;;;;;;16.11;70.99;99415.94;5092495;28;19924;-44
2023/04/22 00:32:49;;;;;;;;;;;;;;;16.21;69.78;99416.06;5092327;28;19969;-43
2023/04/22 00:35:14;;;;;;;;;;;;;;;16.15;70.49;99410.91;5092693;28;19935;-44
2023/04/22 00:37:39;;;;;;;;;;;;;;;15.92;71.00;99407.38;5092400;28;20557;-43
2023/04/22 00:40:05;;;;;;;;;;;;;;;15.73;72.47;99408.66;5092373;28;19970;-44
2023/04/22 00:42:31;;;;;;;;;;;;;;;15.90;71.38;99404.13;5092325;28;20570;-43
2023/04/22 00:44:56;;;;;;;;;;;;;;;16.08;71.27;99410.25;5092338;28;19911;-46
2023/04/22 00:47:25;;;;;;;;;;;;;;;15.47;74.04;99408.25;5091858;28;20380;-42
2023/04/22 00:49:50;;;;;;;;;;;;;;;15.55;73.81;99418.56;5091345;28;19950;-43
2023/04/22 00:52:16;;;;;;;;;;;;;;;15.63;73.06;99428.06;5092086;28;19951;-43
2023/04/22 00:54:41;;;;;;;;;;;;;;;15.22;73.89;99412.13;5092015;28;20347;-44
2023/04/22 00:57:06;;;;;;;;;;;;;;;14.96;74.11;99426.13;5092204;28;19947;-45
2023/04/22 00:59:32;;;;;;;;;;;;;;;15.05;73.32;99424.69;5091789;28;20391;-44
2023/04/22 01:01:57;;;;;;;;;;;;;;;15.28;73.28;99426.44;5091798;28;20624;-43
2023/04/22 01:04:23;;;;;;;;;;;;;;;15.64;71.47;99433.19;5091857;28;19912;-44
2023/04/22 01:06:50;;;;;;;;;;;;;;;15.55;71.53;99426.59;5091714;28;19912;-43
2023/04/22 01:09:17;;;;;;;;;;;;;;;15.73;70.89;99420.22;5091796;28;19923;-46
2023/04/22 01:11:43;;;;;;;;;;;;;;;15.91;69.69;99427.19;5091858;28;19999;-43
2023/04/22 01:14:08;;;;;;;;;;;;;;;15.84;69.86;99421.22;5091862;28;19912;-43
2023/04/22 01:16:34;;;;;;;;;;;;;;;15.73;69.89;99424.75;5091619;28;19919;-43
2023/04/22 01:19:00;;;;;;;;;;;;;;;15.85;69.25;99422.00;5091821;28;19942;-43
2023/04/22 01:21:26;;;;;;;;;;;;;;;15.91;69.33;99421.81;5091549;28;20295;-44
2023/04/22 01:23:52;;;;;;;;;;;;;;;16.07;69.39;99420.19;5091864;28;19923;-44
2023/04/22 01:26:17;;;;;;;;;;;;;;;16.09;69.55;99418.06;5091814;28;19928;-44
2023/04/22 01:28:42;;;;;;;;;;;;;;;15.94;68.85;99417.84;5092112;28;20003;-44
2023/04/22 01:31:08;;;;;;;;;;;;;;;16.08;68.98;99416.44;5091792;28;19920;-44
2023/04/22 01:33:33;;;;;;;;;;;;;;;16.02;69.26;99418.22;5091707;28;19976;-43
2023/04/22 01:35:59;;;;;;;;;;;;;;;16.00;69.47;99416.88;5092238;28;19912;-44
2023/04/22 01:38:24;;;;;;;;;;;;;;;16.01;68.59;99411.25;5091976;28;20417;-45
2023/04/22 01:40:50;;;;;;;;;;;;;;;15.76;69.50;99416.22;5091897;28;19930;-43
2023/04/22 01:43:15;;;;;;;;;;;;;;;15.85;69.84;99416.66;5092020;28;19919;-43
2023/04/22 01:45:41;;;;;;;;;;;;;;;15.95;69.15;99414.09;5091796;28;20417;-43
2023/04/22 01:48:06;;;;;;;;;;;;;;;16.01;68.98;99413.09;5091909;28;19919;-43
2023/04/22 01:50:32;;;;;;;;;;;;;;;15.94;69.03;99421.34;5091737;28;19989;-44
2023/04/22 01:52:57;;;;;;;;;;;;;;;16.00;67.97;99414.19;5091664;28;20378;-43
2023/04/22 01:55:23;;;;;;;;;;;;;;;16.03;68.60;99411.81;5091810;28;19947;-44
2023/04/22 01:57:48;;;;;;;;;;;;;;;15.58;70.09;99406.56;5091679;28;20002;-43
2023/04/22 02:00:13;;;;;;;;;;;;;;;15.51;71.34;99413.94;5091533;28;19916;-44
2023/04/22 02:02:39;;;;;;;;;;;;;;;15.18;72.18;99402.16;5090429;28;20661;-44
2023/04/22 02:05:06;;;;;;;;;;;;;;;15.38;71.30;99404.34;5091679;28;19919;-44
2023/04/22 02:07:31;;;;;;;;;;;;;;;15.25;72.49;99403.63;5091409;28;19916;-43
2023/04/22 02:09:56;;;;;;;;;;;;;;;15.27;72.99;99397.19;5091166;28;20508;-43
2023/04/22 02:12:21;;;;;;;;;;;;;;;15.51;71.24;99403.22;5091402;28;19920;-43
2023/04/22 02:14:47;;;;;;;;;;;;;;;15.59;71.27;99400.94;5091437;28;19977;-44
2023/04/22 02:17:12;;;;;;;;;;;;;;;15.83;70.79;99398.09;5091516;28;20356;-44
2023/04/22 02:19:38;;;;;;;;;;;;;;;15.89;69.74;99394.44;5091582;28;19912;-44
2023/04/22 02:22:03;;;;;;;;;;;;;;;15.86;69.25;99403.00;5091430;28;19919;-44
2023/04/22 02:24:28;;;;;;;;;;;;;;;15.90;69.65;99398.75;5091365;28;19915;-44
2023/04/22 02:26:54;;;;;;;;;;;;;;;15.81;69.86;99378.75;5090944;28;20038;-44
2023/04/22 02:29:19;;;;;;;;;;;;;;;15.78;70.28;99400.69;5091363;28;20007;-44
2023/04/22 02:31:44;;;;;;;;;;;;;;;15.73;69.81;99404.13;5091361;28;19919;-43
2023/04/22 02:34:09;;;;;;;;;;;;;;;15.87;68.98;99403.78;5091454;28;20380;-44
2023/04/22 02:36:35;;;;;;;;;;;;;;;15.89;69.01;99407.03;5091201;28;19912;-43
2023/04/22 02:39:05;;;;;;;;;;;;;;;15.89;68.64;99405.16;5091277;28;20308;-43
2023/04/22 02:41:30;;;;;;;;;;;;;;;15.71;69.28;99408.09;5091009;28;20010;-44
2023/04/22 02:43:55;;;;;;;;;;;;;;;15.70;69.75;99399.22;5091141;28;20050;-45
2023/04/22 02:46:20;;;;;;;;;;;;;;;15.67;69.60;99415.00;5091057;28;20364;-46
2023/04/22 02:48:46;;;;;;;;;;;;;;;15.46;70.32;99412.00;5090928;28;20004;-43
2023/04/22 02:51:11;;;;;;;;;;;;;;;15.55;70.00;99417.75;5090937;28;20360;-43
2023/04/22 02:53:37;;;;;;;;;;;;;;;15.47;70.46;99418.97;5090993;28;19912;-44
2023/04/22 02:56:02;;;;;;;;;;;;;;;15.49;71.09;99414.19;5091174;28;19999;-44
2023/04/22 02:58:27;;;;;;;;;;;;;;;15.42;71.48;99411.69;5090916;28;20002;-44
2023/04/22 03:00:53;;;;;;;;;;;;;;;15.33;71.98;99423.84;5090833;28;19969;-44
2023/04/22 03:03:18;;;;;;;;;;;;;;;15.39;70.96;99419.38;5090746;28;19961;-44
2023/04/22 03:05:43;;;;;;;;;;;;;;;15.45;71.11;99413.84;5091007;28;19912;-44
2023/04/22 03:08:08;;;;;;;;;;;;;;;15.39;71.34;99420.19;5090962;28;19912;-45
2023/04/22 03:10:34;;;;;;;;;;;;;;;15.55;70.00;99417.75;5090860;28;19953;-43
2023/04/22 03:12:59;;;;;;;;;;;;;;;15.55;71.20;99418.56;5094322;28;20383;-43
2023/04/22 03:15:25;;;;;;;;;;;;;;;15.64;70.03;99422.47;5094636;28;20002;-43
2023/04/22 03:17:50;;;;;;;;;;;;;;;15.64;70.03;99417.09;5094338;28;19935;-44
2023/04/22 03:20:15;;;;;;;;;;;;;;;15.69;70.13;99412.88;5094852;28;20352;-44
2023/04/22 03:22:41;;;;;;;;;;;;;;;15.65;69.12;99415.25;5094078;28;19959;-43
2023/04/22 03:25:06;;;;;;;;;;;;;;;15.63;69.60;99415.50;5094427;28;20288;-43
2023/04/22 03:27:32;;;;;;;;;;;;;;;15.69;69.69;99410.19;5094371;28;19928;-43
2023/04/22 03:29:57;;;;;;;;;;;;;;;15.58;69.86;99417.28;5094641;28;19916;-45
2023/04/22 03:32:22;;;;;;;;;;;;;;;15.25;71.51;99408.97;5094112;28;19912;-43
2023/04/22 03:34:47;;;;;;;;;;;;;;;15.14;72.50;99414.41;5094512;28;19912;-44
2023/04/22 03:37:13;;;;;;;;;;;;;;;15.21;72.65;99423.09;5094164;28;19912;-43
2023/04/22 03:39:38;;;;;;;;;;;;;;;15.27;71.88;99429.34;5094083;28;20007;-44
2023/04/22 03:42:03;;;;;;;;;;;;;;;15.16;72.84;99431.88;5094137;28;19922;-43
2023/04/22 03:44:29;;;;;;;;;;;;;;;15.09;72.40;99431.19;5094336;28;19912;-44
2023/04/22 03:46:54;;;;;;;;;;;;;;;15.13;72.70;99436.88;5094041;28;20421;-44
2023/04/22 03:49:20;;;;;;;;;;;;;;;15.18;71.88;99443.16;5093708;28;19916;-45
2023/04/22 03:51:45;;;;;;;;;;;;;;;15.11;72.43;99436.31;5093944;28;19919;-45
2023/04/22 03:54:10;;;;;;;;;;;;;;;15.04;72.77;99449.84;5093788;28;19912;-43
2023/04/22 03:56:36;;;;;;;;;;;;;;;14.98;73.37;99446.28;5093941;28;19961;-43
2023/04/22 03:59:01;;;;;;;;;;;;;;;14.57;73.66;99453.50;5093679;28;19916;-45
2023/04/22 04:01:26;;;;;;;;;;;;;;;14.57;75.07;99458.06;5093583;28;19969;-42
2023/04/22 04:03:51;;;;;;;;;;;;;;;14.48;75.25;99461.06;5093727;28;19919;-45
2023/04/22 04:06:17;;;;;;;;;;;;;;;14.38;76.57;99466.22;5093759;28;19912;-44
2023/04/22 04:08:42;;;;;;;;;;;;;;;14.65;75.38;99463.03;5093638;28;20288;-41
2023/04/22 04:11:08;;;;;;;;;;;;;;;14.58;74.92;99468.53;5093692;28;19993;-43
2023/04/22 04:13:33;;;;;;;;;;;;;;;14.21;77.44;99471.47;5093589;28;19915;-43
2023/04/22 04:15:59;;;;;;;;;;;;;;;14.43;76.46;99466.31;5093354;28;20010;-42
2023/04/22 04:18:24;;;;;;;;;;;;;;;14.45;76.90;99471.44;5093468;28;19919;-45
2023/04/22 04:20:49;;;;;;;;;;;;;;;14.92;73.55;99467.84;5093316;28;19969;-44
2023/04/22 04:23:16;;;;;;;;;;;;;;;14.80;74.38;99467.91;5093292;28;19969;-45
2023/04/22 04:25:41;;;;;;;;;;;;;;;15.23;72.70;99472.75;5093075;28;19920;-44
2023/04/22 04:28:09;;;;;;;;;;;;;;;15.22;72.05;99476.47;5092839;28;19920;-44
2023/04/22 04:30:35;;;;;;;;;;;;;;;15.87;71.27;99476.25;5093193;28;19923;-44
2023/04/22 04:33:05;;;;;;;;;;;;;;;16.33;68.61;99472.34;5093338;28;19912;-44
2023/04/22 04:35:33;;;;;;;;;;;;;;;16.59;67.13;99468.13;5093015;28;19948;-44
2023/04/22 04:37:59;;;;;;;;;;;;;;;16.58;67.60;99473.72;5092793;28;19912;-43
2023/04/22 04:40:24;;;;;;;;;;;;;;;17.29;64.93;99476.47;5093068;28;19912;-43
2023/04/22 04:42:51;;;;;;;;;;;;;;;17.52;64.09;99485.28;5092960;28;19919;-44
2023/04/22 04:45:18;;;;;;;;;;;;;;;17.41;64.30;99478.19;5093049;28;19919;-44
2023/04/22 04:47:43;;;;;;;;;;;;;;;17.55;63.39;99484.75;5092298;28;19912;-42
2023/04/22 04:50:09;;;;;;;;;;;;;;;17.43;63.39;99484.91;5092001;28;19939;-44
2023/04/22 04:52:35;;;;;;;;;;;;;;;17.55;62.43;99488.28;5092055;28;20026;-43
2023/04/22 04:55:00;;;;;;;;;;;;;;;17.28;63.08;99487.47;5088654;28;20342;-43
2023/04/22 04:57:25;;;;;;;;;;;;;;;17.24;64.09;99487.16;5091439;28;20019;-42
2023/04/22 04:59:51;;;;;;;;;;;;;;;17.14;65.47;99487.88;5091559;28;20149;-43
2023/04/22 05:02:16;;;;;;;;;;;;;;;17.64;63.65;99483.22;5091208;28;19926;-44
2023/04/22 05:04:41;;;;;;;;;;;;;;;17.69;62.35;99477.09;5091115;28;19920;-37
2023/04/22 05:07:07;;;;;;;;;;;;;;;17.43;63.92;99484.91;5090053;28;19916;-37
2023/04/22 05:09:36;;;;;;;;;;;;;;;18.04;61.50;99489.22;5091069;28;19966;-37
2023/04/22 05:12:01;;;;;;;;;;;;;;;18.85;57.97;99501.50;5091416;28;19937;-37
2023/04/22 05:14:27;;;;;;;;;;;;;;;18.86;57.82;99500.44;5091499;28;19994;-37
2023/04/22 05:16:52;;;;;;;;;;;;;;;19.47;55.74;99497.91;5091520;28;19970;-35
2023/04/22 05:19:17;;;;;;;;;;;;;;;19.44;55.51;99505.72;5091205;28;20332;-36
2023/04/22 05:21:43;;;;;;;;;;;;;;;19.75;54.16;99495.78;5091407;28;19912;-37
2023/04/22 05:24:08;;;;;;;;;;;;;;;20.31;53.43;99497.63;5089366;28;19916;-36
2023/04/22 05:26:33;;;;;;;;;;;;;;;20.53;53.16;99505.41;5090959;28;20007;-37
2023/04/22 05:28:58;;;;;;;;;;;;;;;20.73;51.19;99493.72;5091199;28;19912;-37
2023/04/22 05:31:24;;;;;;;;;;;;;;;20.22;51.60;99501.94;5091247;28;19912;-36
2023/04/22 05:33:51;;;;;;;;;;;;;;;20.41;51.12;99496.78;5090036;28;20470;-36
2023/04/22 05:36:16;;;;;;;;;;;;;;;20.52;50.78;99503.78;5091358;28;19939;-36
2023/04/22 05:38:41;;;;;;;;;;;;;;;20.34;50.41;99504.38;5090991;28;20448;-36
2023/04/22 05:41:07;;;;;;;;;;;;;;;20.80;50.00;99504.25;5090846;28;19912;-36
2023/04/22 05:43:32;;;;;;;;;;;;;;;21.03;48.94;99509.00;5090950;28;20455;-37
2023/04/22 05:45:58;;;;;;;;;;;;;;;21.31;48.63;99505.91;5091213;28;19916;-36
2023/04/22 05:48:23;;;;;;;;;;;;;;;20.58;49.53;99507.28;5090600;28;19912;-36
2023/04/22 05:50:48;;;;;;;;;;;;;;;21.17;50.00;99500.28;5090953;28;19973;-36
2023/04/22 05:53:14;;;;;;;;;;;;;;;21.65;48.23;99503.25;5091587;28;19955;-36
2023/04/22 05:55:39;;;;;;;;;;;;;;;21.85;47.93;99502.28;5090372;28;19923;-36
2023/04/22 05:58:04;;;;;;;;;;;;;;;22.26;46.73;99501.94;5090061;28;19913;-37
2023/04/22 06:00:30;;;;;;;;;;;;;;;22.89;45.84;99506.34;5091308;28;19912;-37
2023/04/22 06:02:55;;;;;;;;;;;;;;;22.78;45.38;99488.59;5091007;28;19961;-37
2023/04/22 06:05:20;;;;;;;;;;;;;;;23.59;44.03;99505.66;5090937;28;19962;-37
2023/04/22 06:07:46;;;;;;;;;;;;;;;24.52;42.35;99502.22;5090758;28;19912;-37
2023/04/22 06:10:11;;;;;;;;;;;;;;;24.65;41.99;99502.50;5090357;28;19920;-37
2023/04/22 06:12:36;;;;;;;;;;;;;;;24.77;41.07;99484.56;5088186;28;19916;-37
2023/04/22 06:15:02;;;;;;;;;;;;;;;25.71;39.28;99495.78;5085631;28;19930;-37
2023/04/22 06:17:27;;;;;;;;;;;;;;;25.84;38.60;99499.56;5090158;28;19912;-36
2023/04/22 06:19:52;;;;;;;;;;;;;;;26.49;37.48;99503.59;5089793;28;19969;-36
2023/04/22 06:22:18;;;;;;;;;;;;;;;26.58;37.19;99497.34;5088264;28;20371;-36
2023/04/22 06:24:43;;;;;;;;;;;;;;;26.96;36.21;99499.56;5089494;28;19981;-36
2023/04/22 06:27:08;;;;;;;;;;;;;;;27.21;35.03;99503.47;5089315;28;20337;-36
2023/04/22 06:29:34;;;;;;;;;;;;;;;27.54;35.09;99503.81;5089892;28;19924;-36
2023/04/22 06:31:59;;;;;;;;;;;;;;;26.71;35.17;99488.28;5089927;28;19993;-36
2023/04/22 06:34:24;;;;;;;;;;;;;;;26.92;35.58;99496.66;5088498;28;20010;-37
2023/04/22 06:36:50;;;;;;;;;;;;;;;27.04;34.74;99488.66;5088186;28;19977;-36
2023/04/22 06:39:15;;;;;;;;;;;;;;;27.60;33.83;99505.25;5088465;28;20400;-36
2023/04/22 06:41:43;;;;;;;;;;;;;;;27.25;34.39;99497.06;5088323;28;19912;-36
2023/04/22 06:44:08;;;;;;;;;;;;;;;27.41;34.56;99499.31;5088490;28;19940;-37
2023/04/22 06:46:33;;;;;;;;;;;;;;;27.75;33.87;99497.69;5089908;28;19961;-37
2023/04/22 06:48:59;;;;;;;;;;;;;;;27.78;33.44;99491.56;5092955;28;19916;-36
2023/04/22 06:51:24;;;;;;;;;;;;;;;27.14;34.19;99487.56;5093735;28;19919;-37
2023/04/22 06:53:49;;;;;;;;;;;;;;;27.92;33.23;99500.41;5093297;28;19947;-37
2023/04/22 06:56:14;;;;;;;;;;;;;;;28.36;32.42;99495.59;5093545;28;19912;-37
2023/04/22 06:58:40;;;;;;;;;;;;;;;28.42;32.02;99491.53;5093765;28;19918;-36
2023/04/22 07:01:05;;;;;;;;;;;;;;;28.53;32.17;99499.44;5093597;28;19920;-37
2023/04/22 07:03:30;;;;;;;;;;;;;;;27.35;33.89;99497.88;5092090;28;19999;-37
2023/04/22 07:05:56;;;;;;;;;;;;;;;27.90;33.39;99501.88;5111929;28;19912;-37
2023/04/22 07:08:21;;;;;;;;;;;;;;;26.68;34.96;99499.84;5114542;28;19961;-36
2023/04/22 07:10:46;;;;;;;;;;;;;;;27.73;34.18;99502.69;5114014;28;19916;-36
2023/04/22 07:13:11;;;;;;;;;;;;;;;27.86;33.65;99504.44;5113661;28;19932;-36
2023/04/22 07:15:37;;;;;;;;;;;;;;;28.71;32.80;99505.59;5113800;28;19912;-37
2023/04/22 07:18:02;;;;;;;;;;;;;;;28.77;32.67;99505.09;5113525;28;19911;-36
2023/04/22 07:20:27;;;;;;;;;;;;;;;29.37;30.41;99494.84;5113620;28;19916;-36
2023/04/22 07:22:53;;;;;;;;;;;;;;;29.00;31.75;99497.38;5113664;28;19919;-37
2023/04/22 07:25:18;;;;;;;;;;;;;;;28.73;31.95;99509.63;5113544;28;19923;-38
2023/04/22 07:27:43;;;;;;;;;;;;;;;28.47;32.27;99502.31;5113187;28;19924;-36
2023/04/22 07:30:10;;;;;;;;;;;;;;;29.01;31.38;99509.91;5113667;28;19972;-37
2023/04/22 07:32:36;;;;;;;;;;;;;;;29.35;31.03;99507.28;5113365;28;20346;-37
2023/04/22 07:35:01;;;;;;;;;;;;;;;29.66;30.21;99506.06;5113480;28;20363;-36
2023/04/22 07:37:26;;;;;;;;;;;;;;;29.35;29.32;99510.03;5113698;28;19919;-36
2023/04/22 07:39:52;;;;;;;;;;;;;;;28.78;30.20;99512.16;5113985;28;19931;-37
2023/04/22 07:42:17;;;;;;;;;;;;;;;28.40;31.43;99512.16;5113863;28;19907;-36
2023/04/22 07:44:42;;;;;;;;;;;;;;;27.82;33.12;99508.94;5112936;28;19919;-36
2023/04/22 07:47:07;;;;;;;;;;;;;;;29.05;31.27;99505.41;5113514;28;19911;-36
2023/04/22 07:49:33;;;;;;;;;;;;;;;29.94;30.32;99504.34;5114338;28;19923;-35
2023/04/22 07:51:58;;;;;;;;;;;;;;;30.25;29.46;99508.50;5114528;28;20290;-37
2023/04/22 07:54:23;;;;;;;;;;;;;;;30.22;28.51;99506.47;5114004;28;20032;-36
2023/04/22 07:56:49;;;;;;;;;;;;;;;29.70;29.52;99502.31;5113552;28;19916;-37
2023/04/22 07:59:14;;;;;;;;;;;;;;;29.10;30.61;99504.38;5113889;28;19916;-37
2023/04/22 08:01:39;;;;;;;;;;;;;;;29.20;31.11;99495.78;5113625;28;19918;-39
2023/04/22 08:04:06;;;;;;;;;;;;;;;29.21;31.33;99494.66;5113300;28;19991;-37
2023/04/22 08:06:31;;;;;;;;;;;;;;;29.05;29.96;99499.09;5113506;28;20376;-36
2023/04/22 08:08:57;;;;;;;;;;;;;;;28.62;31.18;99498.25;5113182;28;19918;-37
2023/04/22 08:11:22;;;;;;;;;;;;;;;28.81;31.13;99494.28;5113276;28;20002;-36
2023/04/22 08:13:47;;;;;;;;;;;;;;;29.40;30.20;99496.94;5113401;28;19912;-37
2023/04/22 08:16:12;;;;;;;;;;;;;;;30.08;29.53;99495.78;5113218;28;19994;-37
2023/04/22 08:18:38;;;;;;;;;;;;;;;30.39;28.54;99489.03;5113510;28;20010;-36
2023/04/22 08:21:03;;;;;;;;;;;;;;;30.66;28.16;99487.50;5112946;28;20295;-36
2023/04/22 08:23:28;;;;;;;;;;;;;;;30.25;28.03;99483.03;5091071;28;19923;-36
2023/04/22 08:25:54;;;;;;;;;;;;;;;29.75;28.62;99482.13;5090829;28;20337;-37
2023/04/22 08:28:19;;;;;;;;;;;;;;;28.52;30.10;99486.88;5091179;28;19916;-37
2023/04/22 08:30:44;;;;;;;;;;;;;;;26.17;33.20;99482.94;5092251;28;19978;-36
2023/04/22 08:33:10;;;;;;;;;;;;;;;26.31;34.15;99480.09;5092677;28;19989;-36
2023/04/22 08:35:35;;;;;;;;;;;;;;;26.82;33.91;99475.16;5092674;28;20353;-36
2023/04/22 08:38:01;;;;;;;;;;;;;;;26.57;33.20;99477.47;5091135;28;19917;-37
2023/04/22 08:40:26;;;;;;;;;;;;;;;27.05;32.70;99471.16;5092311;28;19919;-37
2023/04/22 08:42:52;;;;;;;;;;;;;;;27.28;32.74;99469.13;5092486;28;20342;-37
2023/04/22 08:45:18;;;;;;;;;;;;;;;26.59;33.21;99461.59;5092122;28;20004;-36
2023/04/22 08:47:44;;;;;;;;;;;;;;;26.62;33.43;99462.91;5091151;28;19916;-36
2023/04/22 08:50:10;;;;;;;;;;;;;;;27.40;32.97;99459.47;5091075;28;19923;-36
2023/04/22 08:52:36;;;;;;;;;;;;;;;28.33;31.44;99457.97;5091574;28;19977;-37
2023/04/22 08:55:01;;;;;;;;;;;;;;;27.58;32.10;99463.78;5091702;28;19912;-36
2023/04/22 08:57:27;;;;;;;;;;;;;;;27.82;32.12;99451.53;5087953;28;19920;-37
2023/04/22 08:59:54;;;;;;;;;;;;;;;28.20;32.10;99453.53;5090002;28;19927;-36
2023/04/22 09:02:20;;;;;;;;;;;;;;;26.87;33.70;99447.72;5090561;28;20499;-37
2023/04/22 09:04:47;;;;;;;;;;;;;;;26.29;35.17;99446.88;5090551;28;20295;-38
2023/04/22 09:07:19;;;;;;;;;;;;;;;25.53;36.63;99448.56;5088226;28;19917;-37
2023/04/22 09:09:44;;;;;;;;;;;;;;;25.62;36.29;99434.19;5089413;28;20006;-36
2023/04/22 09:12:10;;;;;;;;;;;;;;;25.12;37.15;99440.53;5091401;28;20386;-36
2023/04/22 09:14:35;;;;;;;;;;;;;;;25.43;37.14;99424.28;5091026;28;19924;-36
2023/04/22 09:17:02;;;;;;;;;;;;;;;24.67;38.69;99429.53;5090903;28;20307;-37
2023/04/22 09:19:27;;;;;;;;;;;;;;;23.67;39.93;99430.84;5091006;28;20351;-37
2023/04/22 09:21:53;;;;;;;;;;;;;;;24.81;38.42;99427.63;5091152;28;20065;-37
2023/04/22 09:24:19;;;;;;;;;;;;;;;26.09;36.76;99429.97;5091141;28;19916;-37
2023/04/22 09:26:45;;;;;;;;;;;;;;;26.78;35.24;99417.66;5090956;28;19962;-36
2023/04/22 09:29:13;;;;;;;;;;;;;;;27.10;34.32;99418.31;5085636;28;19955;-36
2023/04/22 09:31:39;;;;;;;;;;;;;;;26.25;34.58;99413.97;5090704;28;19912;-37
2023/04/22 09:34:05;;;;;;;;;;;;;;;25.53;35.68;99402.25;5091274;28;20539;-44
2023/04/22 09:36:36;;;;;;;;;;;;;;;25.54;36.46;99409.31;5090864;28;20394;-39
2023/04/22 09:39:06;;;;;;;;;;;;;;;24.73;37.19;99415.53;5089008;28;20283;-42
2023/04/22 09:41:35;;;;;;;;;;;;;;;25.40;34.61;99408.59;5091316;28;19927;-38
2023/04/22 09:44:01;;;;;;;;;;;;;;;25.17;35.67;99396.88;5091189;28;20303;-37
2023/04/22 09:46:28;;;;;;;;;;;;;;;25.76;35.38;99399.50;5091027;28;19912;-37
2023/04/22 09:48:57;;;;;;;;;;;;;;;25.68;35.21;99402.97;5091499;28;19916;-37
2023/04/22 09:51:23;;;;;;;;;;;;;;;26.42;34.66;99387.88;5091850;28;19927;-38
2023/04/22 09:54:03;;;;;;;;;;;;;;;25.70;35.55;99393.38;5091080;28;19911;-37
2023/04/22 09:56:58;;;;;;;;;;;;;;;25.69;34.07;99383.59;5087600;28;19974;-37
2023/04/22 09:59:24;;;;;;;;;;;;;;;24.68;36.57;99377.56;5080771;28;20020;-37
2023/04/22 10:01:52;;;;;;;;;;;;;;;24.96;36.75;99374.78;5090944;28;20046;-38
2023/04/22 10:04:20;;;;;;;;;;;;;;;24.96;35.47;99372.84;5090737;28;20371;-38
2023/04/22 10:06:46;;;;;;;;;;;;;;;23.82;37.15;99380.91;5090533;28;19912;-37
2023/04/22 10:09:12;;;;;;;;;;;;;;;23.46;37.89;99386.94;5088001;28;19920;-36
2023/04/22 10:11:39;;;;;;;;;;;;;;;24.00;35.31;99385.44;5090821;28;19915;-36
2023/04/22 10:14:05;;;;;;;;;;;;;;;24.56;35.22;99375.38;5089263;28;19938;-36
2023/04/22 10:16:31;;;;;;;;;;;;;;;23.71;37.36;99374.03;5090924;28;20363;-37
2023/04/22 10:18:58;;;;;;;;;;;;;;;23.67;36.77;99378.44;5090887;28;20352;-36
2023/04/22 10:21:24;;;;;;;;;;;;;;;23.72;37.00;99373.72;5091122;28;19969;-38
2023/04/22 10:23:49;;;;;;;;;;;;;;;23.98;36.34;99382.22;5090981;28;19916;-37
2023/04/22 10:26:33;;;;;;;;;;;;;;;23.97;36.88;99366.22;5090526;28;20036;-37
2023/04/22 10:28:58;;;;;;;;;;;;;;;24.20;37.52;99373.38;5090621;28;19923;-37
2023/04/22 10:31:24;;;;;;;;;;;;;;;24.77;37.61;99373.00;5091246;28;19916;-37
2023/04/22 10:33:49;;;;;;;;;;;;;;;23.51;37.92;99367.84;5090704;28;19912;-37
2023/04/22 10:36:18;;;;;;;;;;;;;;;23.63;38.29;99367.38;5091057;28;19924;-37
2023/04/22 10:38:53;;;;;;;;;;;;;;;23.64;39.35;99371.69;5091258;28;19919;-37
2023/04/22 10:41:22;;;;;;;;;;;;;;;23.56;39.24;99375.91;5090916;28;19917;-36
2023/04/22 10:43:48;;;;;;;;;;;;;;;22.89;39.69;99381.56;5089964;28;19912;-38
2023/04/22 10:46:38;;;;;;;;;;;;;;;23.22;39.06;99381.63;5089427;28;20415;-37
2023/04/22 10:49:08;;;;;;;;;;;;;;;23.02;39.75;99367.25;5089818;28;20027;-37
2023/04/22 10:51:39;;;;;;;;;;;;;;;21.97;42.05;99378.09;5089814;28;19966;-37
2023/04/22 10:54:05;;;;;;;;;;;;;;;21.51;43.33;99380.47;5089883;28;19969;-36
2023/04/22 10:56:30;;;;;;;;;;;;;;;21.95;43.13;99390.31;5089854;28;19916;-37
2023/04/22 10:58:56;;;;;;;;;;;;;;;21.95;43.25;99388.44;5089905;28;20341;-36
2023/04/22 11:01:21;;;;;;;;;;;;;;;22.61;41.25;99386.03;5085559;28;20034;-38
2023/04/22 11:03:46;;;;;;;;;;;;;;;21.69;42.65;99379.75;5089559;28;19912;-37
2023/04/22 11:06:13;;;;;;;;;;;;;;;22.35;41.53;99383.66;5090247;28;19939;-36
2023/04/22 11:08:42;;;;;;;;;;;;;;;21.99;40.61;99389.47;5090121;28;19912;-36
2023/04/22 11:11:09;;;;;;;;;;;;;;;22.24;38.61;99384.84;5090188;28;19924;-38
2023/04/22 11:13:34;;;;;;;;;;;;;;;21.81;39.11;99382.88;5109824;28;20036;-37
2023/04/22 11:16:01;;;;;;;;;;;;;;;22.12;37.55;99390.66;5110407;28;20431;-37
2023/04/22 11:18:26;;;;;;;;;;;;;;;22.29;38.53;99413.81;5110068;28;19931;-36
2023/04/22 11:20:52;;;;;;;;;;;;;;;21.01;40.35;99419.22;5097153;28;19912;-38
2023/04/22 11:23:25;;;;;;;;;;;;;;;20.01;41.76;99418.28;5089541;28;20321;-38
2023/04/22 11:25:55;;;;;;;;;;;;;;;19.66;42.55;99413.72;5089452;28;20369;-37
2023/04/22 11:28:21;;;;;;;;;;;;;;;19.34;43.41;99430.97;5089818;28;19916;-37
2023/04/22 11:30:47;;;;;;;;;;;;;;;18.70;45.31;99438.38;5089773;28;20307;-36
2023/04/22 11:33:14;;;;;;;;;;;;;;;18.23;46.92;99459.97;5091743;28;19916;-36
2023/04/22 11:35:41;;;;;;;;;;;;;;;18.02;47.87;99443.69;5093622;28;19912;-37
2023/04/22 11:38:07;;;;;;;;;;;;;;;18.01;46.89;99457.41;5092119;28;19989;-37
2023/04/22 11:40:40;;;;;;;;;;;;;;;18.25;47.12;99457.84;5098426;28;20354;-37
2023/04/22 11:43:06;;;;;;;;;;;;;;;18.08;48.08;99448.03;5099033;28;19919;-36
2023/04/22 11:45:32;;;;;;;;;;;;;;;17.24;49.38;99468.31;5105211;28;19912;-37
2023/04/22 11:47:58;;;;;;;;;;;;;;;17.11;50.03;99468.72;5102722;28;20002;-36
2023/04/22 11:50:28;;;;;;;;;;;;;;;17.30;49.48;99448.47;5102574;28;20007;-36
2023/04/22 11:52:54;;;;;;;;;;;;;;;17.07;50.26;99470.31;5096657;28;19968;-37
2023/04/22 11:55:23;;;;;;;;;;;;;;;16.99;51.95;99466.19;5101975;28;20383;-37
2023/04/22 11:57:56;;;;;;;;;;;;;;;17.55;52.38;99465.91;5096413;28;19924;-38
2023/04/22 12:00:22;;;;;;;;;;;;;;;17.68;53.60;99468.19;5101497;28;19916;-37
2023/04/22 12:03:01;;;;;;;;;;;;;;;17.48;54.01;99471.53;5091330;28;19923;-37
2023/04/22 12:05:37;;;;;;;;;;;;;;;17.27;54.63;99467.84;5092534;28;20506;-37
2023/04/22 12:08:05;;;;;;;;;;;;;;;17.67;53.08;99465.75;5092010;28;19962;-38
2023/04/22 12:10:30;;;;;;;;;;;;;;;17.08;53.18;99470.06;5093314;28;19920;-36
2023/04/22 12:12:56;;;;;;;;;;;;;;;17.35;53.50;99471.94;5094819;28;20568;-37
2023/04/22 12:15:21;;;;;;;;;;;;;;;16.93;53.54;99480.66;5095634;28;19964;-36
2023/04/22 12:17:48;;;;;;;;;;;;;;;16.31;55.47;99490.56;5103576;28;20006;-37
2023/04/22 12:20:14;;;;;;;;;;;;;;;16.13;56.06;99486.28;5102094;28;19920;-37
2023/04/22 12:22:39;;;;;;;;;;;;;;;16.04;57.62;99487.78;5091654;28;19939;-37
2023/04/22 12:25:05;;;;;;;;;;;;;;;16.08;57.29;99486.22;5092627;28;19916;-38
2023/04/22 12:27:30;;;;;;;;;;;;;;;16.07;57.43;99495.34;5093753;28;19999;-36
2023/04/22 12:29:56;;;;;;;;;;;;;;;16.16;57.79;99493.88;5089834;28;20375;-38
2023/04/22 12:32:23;;;;;;;;;;;;;;;16.30;59.33;99485.47;5092059;28;19912;-37
2023/04/22 12:34:48;;;;;;;;;;;;;;;16.39;58.57;99489.31;5092993;28;19912;-37
2023/04/22 12:37:14;;;;;;;;;;;;;;;16.22;60.25;99498.25;5092407;28;19912;-37
2023/04/22 12:39:39;;;;;;;;;;;;;;;15.66;61.24;99465.16;5091567;28;19916;-36
2023/04/22 12:42:05;;;;;;;;;;;;;;;15.70;62.06;99481.56;5091325;28;19959;-37